METAR Data
IDs: Format: Raw Decoded Include TAF

Data at: 1812 UTC 16 Oct 2021

KAMA 161753Z 23012KT 10SM -RA CLR 18/M01 A3041 RMK AO2 RAB39 SLP282 P0000 60000 T01831011 10183 20022 58008
KAMA 161653Z 21013KT 8SM CLR 17/M01 A3042 RMK AO2 SLP282 T01721011
KAMA 161553Z 23015G21KT 7SM CLR 14/M01 A3043 RMK AO2 SLP289 T01441011
KAMA 161453Z 23011KT 10SM CLR 12/M01 A3044 RMK AO2 SLP296 T01171011 53014
KAMA 161353Z 21008KT 10SM CLR 07/00 A3042 RMK AO2 SLP295 T00670000
KAMA 161253Z 21007KT 10SM CLR 03/M02 A3040 RMK AO2 SLP293 T00281022
KAMA 161153Z 22008KT 10SM CLR 02/M02 A3039 RMK AO2 SLP283 T00221017 10061 20017 53004
KAMA 161053Z 21008KT 10SM CLR 02/M02 A3038 RMK AO2 SLP276 T00221022
KAMA 160953Z AUTO 21007KT 10SM CLR 03/M02 A3037 RMK AO2 SLP273 T00331017
KAMA 160853Z AUTO 21006KT 10SM CLR 05/M02 A3038 RMK AO2 SLP269 T00501017 50005
KAMA 160753Z AUTO 22005KT 10SM CLR 05/M02 A3038 RMK AO2 SLP272 T00501017
KAMA 160653Z AUTO 21008KT 10SM CLR 03/M02 A3037 RMK AO2 SLP272 T00331022
KAMA 160553Z AUTO 22006KT 10SM CLR 03/M03 A3036 RMK AO2 SLP269 T00281028 10133 20028 401670028 51007
KAMA 160453Z AUTO 19004KT 10SM CLR 07/M03 A3035 RMK AO2 SLP264 T00671028
KAMA 160353Z 16006KT 10SM R04/6000VP6000FT CLR 07/M03 A3034 RMK AO2 SLP263 T00721028
KAMA 160253Z 04007KT 10SM CLR 06/M02 A3033 RMK AO2 SLP267 T00611022 53015
KAMA 160153Z 03009KT 10SM CLR 07/M02 A3032 RMK AO2 SLP262 T00721022
KAMA 160053Z 02010KT 10SM CLR 09/M02 A3030 RMK AO2 SLP256 T00941022
KAMA 152353Z 02009KT 10SM CLR 13/M02 A3029 RMK AO2 SLP244 T01331022 10167 20133 51006
KAMA 152253Z 36010KT 10SM CLR 16/M02 A3028 RMK AO2 SLP237 T01611022
KAMA 152153Z 36015G22KT 10SM CLR 16/M02 A3027 RMK AO2 SLP236 T01561022
KAMA 152053Z 01015G21KT 10SM CLR 17/M01 A3027 RMK AO2 SLP231 T01671011 55006
KAMA 151953Z 34009KT 10SM FEW060 16/M01 A3026 RMK AO2 SLP231 T01611011
KAMA 151853Z 02014G24KT 10SM SCT050 16/00 A3028 RMK AO2 SLP233 T01560000
KAMA 151753Z 35013G22KT 10SM CLR 14/01 A3029 RMK AO2 SLP238 T01440011 10150 20033 51010
KAMA 151653Z 35015G24KT 10SM CLR 13/00 A3028 RMK AO2 SLP238 T01280000 $
KAMA 151553Z 36013G19KT 10SM CLR 11/00 A3028 RMK AO2 SLP239 T01110000
KAMA 151453Z 35013KT 10SM CLR 07/01 A3025 RMK AO2 SLP235 T00670006 53029
KAMA 151353Z 35012KT 10SM CLR 05/01 A3022 RMK AO2 SLP224 T00500006
KAMA 151253Z 34014KT 10SM CLR 03/01 A3018 RMK AO2 PK WND 35026/1226 SLP212 T00330006
KAMA 151153Z 34016G22KT 10SM CLR 04/01 A3016 RMK AO2 SLP193 T00390006 10078 20039 53033 $
KAMA 151053Z AUTO 34015G23KT 10SM CLR 04/01 A3011 RMK AO2 SLP170 T00440011 $
KAMA 150953Z AUTO 35012KT 10SM CLR 05/02 A3006 RMK AO2 SLP152 T00500022 $
KAMA 150853Z AUTO 35011KT 10SM CLR 05/03 A3005 RMK AO2 SLP147 T00500028 53015 $
KAMA 150753Z AUTO 01008KT 10SM CLR 05/03 A3004 RMK AO2 SLP146 T00500028 $
KAMA 150653Z AUTO 01011G22KT 10SM CLR 07/03 A3000 RMK AO2 SLP131 T00720033 $